Time;durP1;ratioP1;P1;durP2;ratioP2;P2;SDS_P1;SDS_P2;PMS_P1;PMS_P2;Temp;Humidity;BMP_temperature;BMP_pressure;BME280_temperature;BME280_humidity;BME280_pressure;Samples;Min_cycle;Max_cycle;Signal;HPM_P1;HPM_P2
2022/09/09 00:01:51;;;;;;;2.20;1.57;;;17.50;1.00;;;;;;4988017;28;20416;-54
2022/09/09 00:04:33;;;;;;;1.80;1.70;;;17.40;1.00;;;;;;4951972;28;20202;-54
2022/09/09 00:07:36;;;;;;;1.83;1.73;;;17.40;1.00;;;;;;4993444;28;20471;-53
2022/09/09 00:10:18;;;;;;;2.63;1.63;;;17.20;1.00;;;;;;4993921;28;20456;-53
2022/09/09 00:13:05;;;;;;;2.93;2.50;;;17.30;1.00;;;;;;5012613;28;20969;-53
2022/09/09 00:15:40;;;;;;;2.23;1.70;;;17.20;1.00;;;;;;5006784;28;20451;-53
2022/09/09 00:18:26;;;;;;;2.17;2.07;;;17.10;1.00;;;;;;4993439;28;20441;-53
2022/09/09 00:21:12;;;;;;;2.20;1.87;;;17.20;1.00;;;;;;5012064;28;20438;-53
2022/09/09 00:23:42;;;;;;;6.47;1.90;;;17.20;1.00;;;;;;5002539;28;20427;-54
2022/09/09 00:26:30;;;;;;;2.20;1.80;;;17.20;1.00;;;;;;4987338;28;20901;-53
2022/09/09 00:29:19;;;;;;;2.10;1.90;;;17.20;1.00;;;;;;4991735;28;20449;-54
2022/09/09 00:31:46;;;;;;;2.60;1.40;;;17.30;1.00;;;;;;4987659;28;20936;-53
2022/09/09 00:34:17;;;;;;;1.80;1.70;;;17.20;1.00;;;;;;4991898;28;20449;-54
2022/09/09 00:36:46;;;;;;;4.43;1.70;;;17.20;1.00;;;;;;5004120;28;20453;-55
2022/09/09 00:39:32;;;;;;;3.00;1.63;;;17.20;1.00;;;;;;4991818;28;20441;-54
2022/09/09 00:42:20;;;;;;;3.10;1.80;;;17.20;1.00;;;;;;4974636;28;20454;-54
2022/09/09 00:45:04;;;;;;;2.07;1.70;;;17.20;1.00;;;;;;4987848;28;20453;-54
2022/09/09 00:47:49;;;;;;;2.57;1.80;;;17.10;1.00;;;;;;5005126;28;20438;-53
2022/09/09 00:50:36;;;;;;;6.10;1.70;;;17.10;1.00;;;;;;4991048;28;20448;-59
2022/09/09 00:53:56;;;;;;;2.20;1.50;;;17.20;1.00;;;;;;4992351;28;20436;-60
2022/09/09 00:56:30;;;;;;;2.63;1.47;;;17.20;1.00;;;;;;4991724;28;20421;-59
2022/09/09 00:59:45;;;;;;;1.47;1.37;;;17.10;1.00;;;;;;4991525;28;20949;-54
2022/09/09 01:02:24;;;;;;;2.27;1.47;;;17.10;1.00;;;;;;4962163;28;20453;-53
2022/09/09 01:04:50;;;;;;;2.07;1.63;;;17.10;1.00;;;;;;4987200;28;20419;-54
2022/09/09 01:07:19;;;;;;;4.30;1.97;;;17.00;1.00;;;;;;4987633;28;20961;-54
2022/09/09 01:09:52;;;;;;;3.40;1.73;;;17.00;1.00;;;;;;4986903;28;20186;-54
2022/09/09 01:12:26;;;;;;;2.83;1.73;;;16.90;1.00;;;;;;5001330;28;20777;-53
2022/09/09 01:15:03;;;;;;;2.27;1.93;;;16.90;1.00;;;;;;4996559;28;20908;-54
2022/09/09 01:17:36;;;;;;;1.80;1.70;;;17.00;1.00;;;;;;4992133;28;20415;-52
2022/09/09 01:20:17;;;;;;;1.97;1.80;;;16.80;1.00;;;;;;4991752;28;20456;-58
2022/09/09 01:23:15;;;;;;;2.47;1.73;;;16.80;1.00;;;;;;4992116;28;20457;-53
2022/09/09 01:25:44;;;;;;;2.93;1.47;;;16.90;1.00;;;;;;4991615;28;20456;-54
2022/09/09 01:28:24;;;;;;;4.37;1.70;;;16.80;1.00;;;;;;4992341;28;20921;-53
2022/09/09 01:30:50;;;;;;;2.53;1.60;;;16.80;1.00;;;;;;5005521;28;20436;-53
2022/09/09 01:33:17;;;;;;;4.20;2.00;;;16.80;1.00;;;;;;4994676;28;20522;-53
2022/09/09 01:35:56;;;;;;;1.90;1.50;;;16.80;1.00;;;;;;4991271;28;20216;-54
2022/09/09 01:38:23;;;;;;;2.50;1.47;;;16.70;1.00;;;;;;4995541;28;20477;-53
2022/09/09 01:40:51;;;;;;;2.10;1.87;;;16.60;1.00;;;;;;4991450;28;20469;-54
2022/09/09 01:43:20;;;;;;;1.83;1.60;;;16.70;1.00;;;;;;4988953;28;20435;-53
2022/09/09 01:45:47;;;;;;;1.63;1.33;;;16.70;1.00;;;;;;4991393;28;20427;-52
2022/09/09 01:48:13;;;;;;;1.90;1.60;;;16.70;1.00;;;;;;4989577;28;20463;-53
2022/09/09 01:50:39;;;;;;;3.00;2.00;;;;;;;;;;4990716;28;20477;-54
2022/09/09 01:53:04;;;;;;;2.63;1.60;;;16.60;1.00;;;;;;4989416;28;20186;-55
2022/09/09 01:55:35;;;;;;;3.20;1.90;;;16.60;1.00;;;;;;4990787;28;21013;-53
2022/09/09 01:58:31;;;;;;;3.90;1.70;;;16.60;1.00;;;;;;4990879;28;20190;-54
2022/09/09 02:01:25;;;;;;;1.93;1.20;;;16.60;1.00;;;;;;4991378;28;20821;-54
2022/09/09 02:03:57;;;;;;;4.20;1.67;;;16.60;1.00;;;;;;4999901;28;20444;-53
2022/09/09 02:06:25;;;;;;;2.17;1.63;;;16.60;1.00;;;;;;5010981;28;20468;-52
2022/09/09 02:08:56;;;;;;;2.70;1.43;;;16.50;1.00;;;;;;4990814;28;20878;-54
2022/09/09 02:11:27;;;;;;;1.73;1.57;;;16.50;1.00;;;;;;4991589;28;21029;-53
2022/09/09 02:14:15;;;;;;;2.30;2.00;;;16.50;1.00;;;;;;4989577;28;20529;-54
2022/09/09 02:16:47;;;;;;;2.43;1.80;;;16.40;1.00;;;;;;4991278;28;20521;-55
2022/09/09 02:19:31;;;;;;;2.93;1.73;;;16.30;1.00;;;;;;4991461;28;20954;-53
2022/09/09 02:22:00;;;;;;;2.10;1.60;;;16.40;1.00;;;;;;4990297;28;20419;-59
2022/09/09 02:24:27;;;;;;;1.87;1.63;;;16.30;1.00;;;;;;4990408;28;20428;-59
2022/09/09 02:26:55;;;;;;;3.80;1.97;;;16.30;1.00;;;;;;4994135;28;20489;-60
2022/09/09 02:29:30;;;;;;;1.57;1.47;;;16.30;1.00;;;;;;4993785;28;20928;-59
2022/09/09 02:32:00;;;;;;;2.50;1.67;;;16.30;1.00;;;;;;4976422;28;20786;-59
2022/09/09 02:34:28;;;;;;;3.67;1.80;;;16.30;1.00;;;;;;4991787;28;20465;-59
2022/09/09 02:36:57;;;;;;;2.23;1.67;;;16.20;1.00;;;;;;4993169;28;20510;-59
2022/09/09 02:39:22;;;;;;;1.70;1.60;;;16.20;1.00;;;;;;4994014;28;20423;-59
2022/09/09 02:41:48;;;;;;;2.93;1.60;;;16.20;1.00;;;;;;4994381;28;20582;-58
2022/09/09 02:44:19;;;;;;;1.70;1.60;;;16.10;1.00;;;;;;4992727;28;20241;-58
2022/09/09 02:46:56;;;;;;;2.93;1.50;;;16.10;1.00;;;;;;4995213;28;20205;-59
2022/09/09 02:49:49;;;;;;;4.03;2.00;;;16.10;1.00;;;;;;4994152;28;20946;-58
2022/09/09 02:52:19;;;;;;;3.00;1.97;;;16.00;1.00;;;;;;4993288;28;20415;-60
2022/09/09 02:54:45;;;;;;;4.97;1.97;;;16.00;1.00;;;;;;4992494;28;20510;-59
2022/09/09 02:57:17;;;;;;;2.43;1.60;;;16.00;1.00;;;;;;4994408;28;20444;-59
2022/09/09 02:59:44;;;;;;;1.90;1.80;;;15.90;1.00;;;;;;5006581;28;20461;-54
2022/09/09 03:02:11;;;;;;;2.53;1.70;;;16.00;1.00;;;;;;5013541;28;21012;-54
2022/09/09 03:04:40;;;;;;;2.00;1.80;;;16.00;1.00;;;;;;4989910;28;20452;-54
2022/09/09 03:07:06;;;;;;;2.00;1.43;;;16.00;1.00;;;;;;4991686;28;20440;-54
2022/09/09 03:09:34;;;;;;;1.80;1.70;;;16.00;1.00;;;;;;4994411;28;20415;-53
2022/09/09 03:12:00;;;;;;;5.30;1.53;;;16.00;1.00;;;;;;4993105;28;20205;-60
2022/09/09 03:14:25;;;;;;;3.50;2.03;;;16.00;1.00;;;;;;4992665;28;20445;-53
2022/09/09 03:16:52;;;;;;;3.90;2.17;;;16.00;1.00;;;;;;5001343;28;20181;-53
2022/09/09 03:19:18;;;;;;;2.90;1.93;;;16.00;1.00;;;;;;4989074;28;20186;-54
2022/09/09 03:21:46;;;;;;;2.90;1.87;;;15.90;1.00;;;;;;4993854;28;20419;-54
2022/09/09 03:24:13;;;;;;;2.53;2.13;;;16.00;1.00;;;;;;4989800;28;20453;-53
2022/09/09 03:26:40;;;;;;;2.27;1.97;;;15.90;1.00;;;;;;4994014;28;20439;-53
2022/09/09 03:29:06;;;;;;;2.30;1.87;;;15.80;1.00;;;;;;5003727;28;20483;-55
2022/09/09 03:31:36;;;;;;;2.87;2.40;;;15.80;1.00;;;;;;4993658;28;20455;-54
2022/09/09 03:34:02;;;;;;;2.07;1.73;;;15.80;1.00;;;;;;4986338;28;22386;-54
2022/09/09 03:36:28;;;;;;;1.87;1.77;;;15.80;1.00;;;;;;4999354;28;20422;-54
2022/09/09 03:38:54;;;;;;;2.00;1.80;;;15.70;1.00;;;;;;4997324;28;20582;-53
2022/09/09 03:41:23;;;;;;;4.43;2.30;;;15.70;1.00;;;;;;4993383;28;20468;-52
2022/09/09 03:43:53;;;;;;;3.47;2.10;;;15.70;1.00;;;;;;5002743;28;20430;-53
2022/09/09 03:46:20;;;;;;;2.23;2.00;;;15.70;1.00;;;;;;4991363;28;20474;-53
2022/09/09 03:48:46;;;;;;;3.20;1.90;;;15.70;1.00;;;;;;4996336;28;20836;-54
2022/09/09 03:51:12;;;;;;;1.93;1.77;;;15.70;1.00;;;;;;4995367;28;20443;-54
2022/09/09 03:53:38;;;;;;;4.00;2.30;;;15.60;1.00;;;;;;4992647;28;20438;-53
2022/09/09 03:56:10;;;;;;;3.00;2.03;;;15.60;1.00;;;;;;4990324;28;20428;-53
2022/09/09 03:58:37;;;;;;;2.20;2.00;;;15.60;1.00;;;;;;4993266;28;20452;-55
2022/09/09 04:01:10;;;;;;;4.97;2.33;;;15.60;1.00;;;;;;4990900;28;20448;-53
2022/09/09 04:03:35;;;;;;;6.10;2.37;;;15.50;1.00;;;;;;4993162;28;20431;-52
2022/09/09 04:06:07;;;;;;;4.93;2.30;;;15.50;1.00;;;;;;4990705;28;20460;-53
2022/09/09 04:08:33;;;;;;;3.40;2.20;;;15.50;1.00;;;;;;4993185;28;20507;-53
2022/09/09 04:11:00;;;;;;;2.80;2.37;;;15.60;1.00;;;;;;4993395;28;20433;-53
2022/09/09 04:13:26;;;;;;;3.00;2.30;;;15.50;1.00;;;;;;4991523;28;20541;-55
2022/09/09 04:15:56;;;;;;;4.53;2.37;;;15.50;1.00;;;;;;5000490;28;20456;-54
2022/09/09 04:18:22;;;;;;;3.37;3.07;;;15.50;1.00;;;;;;5004263;28;20415;-53
2022/09/09 04:20:49;;;;;;;5.20;2.50;;;15.50;1.00;;;;;;4992637;28;20408;-52
2022/09/09 04:23:16;;;;;;;3.03;2.07;;;15.60;1.00;;;;;;4991178;28;20830;-54
2022/09/09 04:25:46;;;;;;;2.30;2.17;;;15.60;1.00;;;;;;4989623;28;20461;-54
2022/09/09 04:28:13;;;;;;;3.70;2.27;;;15.60;1.00;;;;;;4990357;28;20481;-54
2022/09/09 04:30:39;;;;;;;4.13;2.30;;;15.60;1.00;;;;;;4992018;28;20424;-52
2022/09/09 04:33:06;;;;;;;2.40;2.20;;;15.60;1.00;;;;;;4992575;28;20528;-53
2022/09/09 04:35:32;;;;;;;3.00;2.77;;;15.70;1.00;;;;;;4989423;28;21040;-54
2022/09/09 04:37:58;;;;;;;3.20;2.57;;;15.70;1.00;;;;;;4992555;28;20483;-54
2022/09/09 04:40:25;;;;;;;2.47;2.27;;;15.60;1.00;;;;;;4995606;28;20555;-53
2022/09/09 04:42:51;;;;;;;3.10;2.80;;;15.70;1.00;;;;;;4992345;28;20217;-54
2022/09/09 04:45:16;;;;;;;2.87;2.57;;;15.70;1.00;;;;;;4992157;28;20551;-53
2022/09/09 04:47:42;;;;;;;4.20;2.67;;;15.80;1.00;;;;;;4992493;28;21052;-53
2022/09/09 04:50:08;;;;;;;3.13;2.60;;;15.80;1.00;;;;;;4991156;28;20183;-54
2022/09/09 04:52:35;;;;;;;3.00;2.70;;;15.80;1.00;;;;;;4987559;28;20637;-54
2022/09/09 04:55:01;;;;;;;3.20;2.90;;;15.80;1.00;;;;;;4990221;28;20437;-53
2022/09/09 04:57:27;;;;;;;2.70;2.50;;;15.90;1.00;;;;;;4990359;28;20434;-54
2022/09/09 04:59:52;;;;;;;2.97;2.60;;;15.90;1.00;;;;;;4991671;28;20435;-54
2022/09/09 05:02:18;;;;;;;3.60;2.90;;;15.90;1.00;;;;;;4989599;28;20546;-54
2022/09/09 05:04:43;;;;;;;5.50;2.97;;;16.00;1.00;;;;;;4992437;28;20214;-53
2022/09/09 05:07:10;;;;;;;2.77;2.57;;;16.00;1.00;;;;;;4984006;28;20228;-52
2022/09/09 05:09:35;;;;;;;3.07;2.87;;;16.00;1.00;;;;;;4987064;28;20214;-52
2022/09/09 05:12:02;;;;;;;3.30;2.73;;;16.10;1.00;;;;;;4990493;28;20476;-54
2022/09/09 05:14:29;;;;;;;3.70;3.07;;;16.20;1.00;;;;;;4991952;28;20182;-53
2022/09/09 05:16:55;;;;;;;3.23;2.50;;;16.20;1.00;;;;;;4973687;28;20454;-54
2022/09/09 05:19:21;;;;;;;3.33;2.40;;;16.30;1.00;;;;;;4991658;28;20408;-54
2022/09/09 05:21:47;;;;;;;2.70;2.40;;;16.40;1.00;;;;;;4984644;28;20480;-54
2022/09/09 05:24:12;;;;;;;3.83;2.80;;;16.40;1.00;;;;;;4986662;28;20278;-54
2022/09/09 05:26:38;;;;;;;2.87;2.67;;;16.50;1.00;;;;;;4991935;28;20245;-56
2022/09/09 05:29:03;;;;;;;5.70;2.90;;;16.60;1.00;;;;;;4989835;28;20190;-54
2022/09/09 05:31:30;;;;;;;5.80;2.73;;;16.60;1.00;;;;;;4991677;28;20320;-54
2022/09/09 05:33:56;;;;;;;3.63;2.63;;;16.60;1.00;;;;;;4990178;28;20201;-54
2022/09/09 05:36:22;;;;;;;5.67;3.07;;;16.60;1.00;;;;;;4991587;28;20408;-54
2022/09/09 05:38:49;;;;;;;7.97;2.97;;;16.70;1.00;;;;;;4993943;28;20189;-53
2022/09/09 05:41:16;;;;;;;3.97;2.23;;;16.80;1.00;;;;;;5010767;28;20447;-53
2022/09/09 05:43:44;;;;;;;4.70;2.53;;;17.00;1.00;;;;;;4997665;28;20426;-54
2022/09/09 05:46:13;;;;;;;3.37;2.70;;;17.10;1.00;;;;;;4991291;28;20468;-53
2022/09/09 05:48:46;;;;;;;4.87;2.73;;;17.20;1.00;;;;;;4989905;28;20508;-53
2022/09/09 05:51:17;;;;;;;3.63;2.60;;;17.40;1.00;;;;;;4991195;28;20409;-53
2022/09/09 05:53:43;;;;;;;3.43;2.40;;;17.50;1.00;;;;;;4989753;28;20479;-54
2022/09/09 05:56:12;;;;;;;4.43;3.10;;;17.60;1.00;;;;;;4990736;28;20441;-54
2022/09/09 05:58:38;;;;;;;4.10;2.90;;;17.60;1.00;;;;;;4990145;28;20671;-54
2022/09/09 06:01:15;;;;;;;5.07;2.33;;;17.80;1.00;;;;;;4990588;28;20435;-54
2022/09/09 06:03:43;;;;;;;1.97;1.83;;;17.80;1.00;;;;;;4991130;28;20933;-55
2022/09/09 06:06:10;;;;;;;2.50;2.00;;;17.80;1.00;;;;;;4991148;28;20437;-53
2022/09/09 06:08:39;;;;;;;3.47;2.47;;;17.80;1.00;;;;;;4989882;28;20937;-53
2022/09/09 06:11:30;;;;;;;5.70;2.73;;;17.80;1.00;;;;;;4991444;28;20959;-54
2022/09/09 06:13:56;;;;;;;7.47;2.63;;;17.80;1.00;;;;;;4975223;28;20419;-54
2022/09/09 06:16:24;;;;;;;4.20;2.20;;;17.80;1.00;;;;;;4990334;28;20416;-55
2022/09/09 06:18:50;;;;;;;7.57;2.27;;;17.80;1.00;;;;;;4990210;28;20424;-55
2022/09/09 06:21:19;;;;;;;2.50;2.10;;;17.90;1.00;;;;;;4990971;28;20408;-54
2022/09/09 06:23:46;;;;;;;4.47;2.67;;;17.90;1.00;;;;;;4990720;28;20450;-54
2022/09/09 06:26:14;;;;;;;3.27;2.40;;;17.90;1.00;;;;;;4990260;28;20472;-55
2022/09/09 06:28:42;;;;;;;4.30;2.50;;;17.90;1.00;;;;;;4989969;28;20460;-54
2022/09/09 06:31:11;;;;;;;4.33;2.43;;;17.90;1.00;;;;;;4986674;28;20441;-54
2022/09/09 06:33:40;;;;;;;5.57;2.17;;;17.90;1.00;;;;;;4987442;28;20441;-55
2022/09/09 06:36:14;;;;;;;3.93;2.83;;;18.00;1.00;;;;;;4988935;28;21070;-54
2022/09/09 06:38:44;;;;;;;4.10;2.87;;;18.00;1.00;;;;;;4990532;28;20423;-54
2022/09/09 06:41:11;;;;;;;4.13;2.27;;;17.90;1.00;;;;;;4990064;28;20798;-55
2022/09/09 06:43:37;;;;;;;3.53;2.53;;;17.90;1.00;;;;;;4990981;28;20420;-54
2022/09/09 06:46:14;;;;;;;3.03;2.30;;;18.00;1.00;;;;;;4989873;28;20519;-53
2022/09/09 06:48:44;;;;;;;3.03;2.40;;;18.10;1.00;;;;;;5005778;28;20228;-55
2022/09/09 06:51:21;;;;;;;5.33;2.27;;;18.40;1.00;;;;;;4990325;28;21005;-52
2022/09/09 06:53:50;;;;;;;2.77;2.33;;;18.60;1.00;;;;;;4989659;28;20433;-54
2022/09/09 06:56:22;;;;;;;3.80;2.33;;;18.70;1.00;;;;;;4990148;28;20452;-56
2022/09/09 06:58:49;;;;;;;4.70;2.73;;;18.90;1.00;;;;;;4970677;28;21164;-53
2022/09/09 07:01:21;;;;;;;3.90;2.70;;;19.00;1.00;;;;;;4986638;28;20449;-55
2022/09/09 07:03:49;;;;;;;6.93;2.43;;;19.10;1.00;;;;;;4989003;28;20440;-53
2022/09/09 07:06:32;;;;;;;5.90;2.43;;;19.30;1.00;;;;;;4989653;28;20427;-54
2022/09/09 07:09:01;;;;;;;4.13;2.40;;;19.50;1.00;;;;;;4987232;28;20477;-53
2022/09/09 07:11:29;;;;;;;3.20;2.50;;;19.80;1.00;;;;;;4988722;28;20472;-53
2022/09/09 07:13:54;;;;;;;5.37;2.60;;;19.90;1.00;;;;;;4991947;28;20437;-56
2022/09/09 07:16:24;;;;;;;5.50;2.60;;;20.00;1.00;;;;;;4993565;28;20932;-54
2022/09/09 07:18:51;;;;;;;2.77;2.57;;;20.40;1.00;;;;;;4991290;28;20249;-54
2022/09/09 07:21:17;;;;;;;8.40;3.13;;;20.40;1.00;;;;;;4993887;28;20450;-56
2022/09/09 07:23:43;;;;;;;6.50;2.47;;;20.70;1.00;;;;;;4990599;28;20943;-54
2022/09/09 07:26:15;;;;;;;3.30;2.30;;;20.70;1.00;;;;;;4993144;28;20451;-54
2022/09/09 07:28:41;;;;;;;3.47;2.07;;;20.90;1.00;;;;;;4995280;28;20412;-56
2022/09/09 07:31:16;;;;;;;6.23;2.20;;;21.10;1.00;;;;;;4991652;28;20442;-53
2022/09/09 07:33:42;;;;;;;3.63;1.93;;;21.30;1.00;;;;;;4993701;28;20461;-52
2022/09/09 07:36:28;;;;;;;6.60;2.20;;;21.40;1.00;;;;;;4982511;28;20423;-54
2022/09/09 07:39:05;;;;;;;2.80;1.90;;;21.50;1.00;;;;;;4993331;28;20508;-52
2022/09/09 07:41:42;;;;;;;4.60;2.70;;;21.60;1.00;;;;;;4993993;28;20508;-54
2022/09/09 07:44:22;;;;;;;6.80;1.97;;;21.70;1.00;;;;;;4987465;28;20826;-53
2022/09/09 07:46:48;;;;;;;3.53;2.03;;;21.90;1.00;;;;;;4992062;28;20444;-53
2022/09/09 07:49:14;;;;;;;2.80;2.43;;;22.10;1.00;;;;;;4992730;28;20512;-54
2022/09/09 07:51:42;;;;;;;2.00;1.80;;;22.20;1.00;;;;;;4993383;28;20274;-54
2022/09/09 07:54:11;;;;;;;4.93;2.30;;;22.20;1.00;;;;;;4993499;28;20428;-55
2022/09/09 07:56:38;;;;;;;3.20;2.20;;;22.10;1.00;;;;;;4991939;28;20465;-54
2022/09/09 07:59:06;;;;;;;2.30;1.50;;;22.20;1.00;;;;;;4991977;28;20543;-54
2022/09/09 08:01:37;;;;;;;3.40;1.87;;;22.80;1.00;;;;;;4988263;28;20852;-56
2022/09/09 08:04:08;;;;;;;3.47;2.00;;;22.90;1.00;;;;;;4993336;28;20436;-54
2022/09/09 08:06:39;;;;;;;3.33;1.60;;;23.30;1.00;;;;;;4992429;28;20501;-53
2022/09/09 08:09:06;;;;;;;2.93;1.90;;;23.50;1.00;;;;;;4990832;28;20469;-55
2022/09/09 08:11:33;;;;;;;6.03;1.90;;;23.50;1.00;;;;;;4986001;28;20421;-54
2022/09/09 08:13:59;;;;;;;4.87;2.10;;;23.70;1.00;;;;;;4987886;28;20504;-55
2022/09/09 08:16:33;;;;;;;3.43;1.90;;;23.80;1.00;;;;;;4986632;28;20447;-54
2022/09/09 08:18:59;;;;;;;1.93;1.77;;;23.90;1.00;;;;;;4991871;28;20450;-53
2022/09/09 08:21:27;;;;;;;1.80;1.47;;;23.70;1.00;;;;;;4991218;28;20447;-53
2022/09/09 08:23:54;;;;;;;2.10;1.90;;;23.40;1.00;;;;;;4990091;28;20446;-54
2022/09/09 08:26:23;;;;;;;2.67;1.67;;;23.10;1.00;;;;;;4990331;28;20941;-54
2022/09/09 08:28:53;;;;;;;3.00;1.77;;;23.00;1.00;;;;;;4992723;28;20544;-54
2022/09/09 08:31:21;;;;;;;3.40;1.90;;;22.90;1.00;;;;;;4991948;28;20416;-54
2022/09/09 08:33:47;;;;;;;2.50;2.10;;;23.00;1.00;;;;;;4987320;28;20783;-53
2022/09/09 08:36:19;;;;;;;3.80;2.07;;;23.10;1.00;;;;;;4992955;28;20449;-53
2022/09/09 08:38:48;;;;;;;3.50;2.30;;;23.30;1.00;;;;;;4988506;28;20446;-54
2022/09/09 08:41:32;;;;;;;5.27;2.50;;;23.40;1.00;;;;;;4992151;28;20485;-54
2022/09/09 08:44:39;;;;;;;3.43;2.40;;;23.40;1.00;;;;;;4976772;28;20785;-53
2022/09/09 08:47:17;;;;;;;5.23;2.10;;;23.60;1.00;;;;;;4961081;28;20465;-54
2022/09/09 08:50:15;;;;;;;5.50;2.50;;;23.80;1.00;;;;;;4992239;28;20442;-53
2022/09/09 08:53:02;;;;;;;5.20;2.47;;;23.90;1.00;;;;;;4999625;28;20436;-53
2022/09/09 08:55:38;;;;;;;5.83;2.20;;;24.10;1.00;;;;;;4990936;28;20526;-53
2022/09/09 08:58:12;;;;;;;7.30;2.70;;;24.20;1.00;;;;;;4990840;28;20501;-54
2022/09/09 09:00:51;;;;;;;3.40;1.97;;;24.70;1.00;;;;;;4990957;28;20436;-54
2022/09/09 09:03:41;;;;;;;5.37;2.03;;;25.00;1.00;;;;;;4990878;28;20444;-54
2022/09/09 09:06:19;;;;;;;2.73;1.83;;;25.10;1.00;;;;;;4989188;28;20454;-55
2022/09/09 09:08:56;;;;;;;4.03;2.07;;;25.00;1.00;;;;;;4991238;28;20449;-53
2022/09/09 09:11:22;;;;;;;4.07;1.70;;;24.70;1.00;;;;;;4988962;28;20448;-55
2022/09/09 09:13:57;;;;;;;6.60;2.30;;;24.50;1.00;;;;;;4989863;28;20435;-53
2022/09/09 09:16:38;;;;;;;4.17;2.10;;;24.20;1.00;;;;;;4988751;28;20450;-55
2022/09/09 09:19:04;;;;;;;7.27;2.20;;;24.20;1.00;;;;;;4990520;28;20500;-55
2022/09/09 09:21:52;;;;;;;5.20;2.17;;;24.20;1.00;;;;;;4989505;28;20454;-56
2022/09/09 09:24:22;;;;;;;4.37;2.60;;;24.00;1.00;;;;;;4983337;28;20441;-55
2022/09/09 09:26:47;;;;;;;5.77;2.07;;;23.40;1.00;;;;;;4991206;28;20492;-56
2022/09/09 09:29:17;;;;;;;4.20;2.30;;;23.40;1.00;;;;;;4995364;28;20921;-55
2022/09/09 09:31:50;;;;;;;5.80;2.40;;;23.20;1.00;;;;;;4989772;28;20564;-53
2022/09/09 09:34:17;;;;;;;4.87;2.20;;;23.10;1.00;;;;;;4988403;28;20446;-54
2022/09/09 09:37:01;;;;;;;7.13;2.10;;;22.90;1.00;;;;;;4977670;28;20484;-56
2022/09/09 09:39:39;;;;;;;2.60;1.50;;;22.80;1.00;;;;;;4988563;28;20458;-54
2022/09/09 09:42:17;;;;;;;6.43;2.20;;;22.90;1.00;;;;;;4989895;28;20463;-55
2022/09/09 09:44:43;;;;;;;3.23;2.57;;;23.20;1.00;;;;;;4987830;28;20457;-54
2022/09/09 09:47:14;;;;;;;2.60;1.50;;;23.30;1.00;;;;;;4985706;28;20503;-54
2022/09/09 09:49:59;;;;;;;2.10;1.50;;;23.50;1.00;;;;;;4988319;28;20449;-54
2022/09/09 09:52:28;;;;;;;3.00;1.40;;;23.70;1.00;;;;;;4986687;28;20519;-53
2022/09/09 09:54:56;;;;;;;4.93;1.63;;;23.80;1.00;;;;;;4990763;28;21035;-52
2022/09/09 09:57:30;;;;;;;4.20;1.10;;;23.80;1.00;;;;;;4985243;28;20446;-54
2022/09/09 10:00:18;;;;;;;4.90;1.40;;;23.70;1.00;;;;;;4992449;28;20448;-53
2022/09/09 10:02:45;;;;;;;6.03;1.20;;;23.90;1.00;;;;;;4985164;28;20536;-54
2022/09/09 10:05:18;;;;;;;3.17;1.50;;;23.90;1.00;;;;;;4987949;28;20916;-54
2022/09/09 10:07:47;;;;;;;3.00;1.30;;;23.90;1.00;;;;;;4984583;28;20470;-54
2022/09/09 10:10:26;;;;;;;2.70;1.30;;;24.00;1.00;;;;;;4988293;28;20466;-52
2022/09/09 10:13:09;;;;;;;6.50;1.67;;;24.30;1.00;;;;;;4988765;28;20454;-55
2022/09/09 10:15:46;;;;;;;2.53;1.60;;;24.50;1.00;;;;;;4986583;28;20847;-55
2022/09/09 10:18:19;;;;;;;3.63;1.73;;;24.60;1.00;;;;;;4987250;28;20511;-55
2022/09/09 10:21:15;;;;;;;3.97;1.80;;;24.70;1.00;;;;;;4985729;28;20483;-53
2022/09/09 10:24:12;;;;;;;3.43;1.70;;;24.80;1.00;;;;;;4988024;28;20828;-53
2022/09/09 10:26:40;;;;;;;2.37;1.10;;;24.90;1.00;;;;;;4987117;28;20471;-53
2022/09/09 10:29:21;;;;;;;5.17;1.43;;;24.90;1.00;;;;;;4996196;28;21009;-52
2022/09/09 10:32:26;;;;;;;4.90;1.30;;;24.90;1.00;;;;;;4988459;28;20679;-52
2022/09/09 10:35:08;;;;;;;3.40;1.57;;;24.70;1.00;;;;;;4976135;28;20437;-53
2022/09/09 10:38:05;;;;;;;2.20;1.07;;;24.70;1.00;;;;;;4986105;28;20464;-55
2022/09/09 10:40:57;;;;;;;2.73;1.47;;;25.00;1.00;;;;;;4988681;28;20446;-54
2022/09/09 10:43:46;;;;;;;2.20;1.37;;;24.80;1.00;;;;;;4967744;28;20572;-52
2022/09/09 10:46:50;;;;;;;3.17;1.40;;;24.90;1.00;;;;;;4988392;28;20454;-53
2022/09/09 10:49:29;;;;;;;3.33;1.80;;;25.00;1.00;;;;;;4986471;28;20859;-54
2022/09/09 10:51:54;;;;;;;4.10;1.70;;;25.20;1.00;;;;;;4987086;28;20450;-52
2022/09/09 10:55:01;;;;;;;2.30;1.30;;;25.30;1.00;;;;;;4991377;28;20764;-54
2022/09/09 10:57:38;;;;;;;2.40;1.13;;;25.40;1.00;;;;;;4974410;28;20202;-54
2022/09/09 11:00:14;;;;;;;1.60;0.93;;;25.50;1.00;;;;;;4987811;28;20919;-55
2022/09/09 11:02:41;;;;;;;2.50;1.43;;;25.50;1.00;;;;;;4986291;28;20448;-54
2022/09/09 11:05:37;;;;;;;3.20;1.20;;;25.40;1.00;;;;;;4988799;28;21076;-55
2022/09/09 11:08:12;;;;;;;3.80;1.50;;;25.40;1.00;;;;;;4989138;28;20520;-54
2022/09/09 11:10:52;;;;;;;3.30;1.63;;;25.30;1.00;;;;;;4991147;28;20489;-54
2022/09/09 11:13:41;;;;;;;3.33;1.43;;;25.30;1.00;;;;;;4993203;28;20492;-55
2022/09/09 11:16:44;;;;;;;1.60;1.13;;;24.80;1.00;;;;;;4994329;28;20454;-52
2022/09/09 11:19:35;;;;;;;2.50;1.60;;;24.80;1.00;;;;;;4993301;28;20449;-55
2022/09/09 11:22:15;;;;;;;4.10;1.50;;;24.60;1.00;;;;;;4996671;28;20425;-54
2022/09/09 11:24:50;;;;;;;2.80;1.27;;;24.60;1.00;;;;;;4991981;28;20931;-54
2022/09/09 11:27:55;;;;;;;4.13;1.50;;;24.50;1.00;;;;;;4988821;28;20548;-54
2022/09/09 11:30:49;;;;;;;3.43;1.20;;;24.40;1.00;;;;;;4993095;28;20480;-54
2022/09/09 11:33:27;;;;;;;4.90;1.80;;;24.00;1.00;;;;;;4994762;28;20460;-53
2022/09/09 11:36:30;;;;;;;2.50;1.07;;;24.50;1.00;;;;;;4989879;28;20956;-53
2022/09/09 11:39:10;;;;;;;3.80;2.00;;;24.70;1.00;;;;;;4994128;28;20507;-53
2022/09/09 11:41:37;;;;;;;1.97;1.10;;;24.90;1.00;;;;;;4989352;28;20498;-53
2022/09/09 11:44:17;;;;;;;2.83;1.27;;;25.10;1.00;;;;;;5006085;28;20451;-54
2022/09/09 11:46:49;;;;;;;4.70;1.77;;;25.10;1.00;;;;;;4991073;28;20477;-55
2022/09/09 11:49:28;;;;;;;4.17;2.10;;;25.20;1.00;;;;;;4996948;28;20517;-54
2022/09/09 11:51:54;;;;;;;2.20;1.20;;;25.20;1.00;;;;;;4992335;28;20429;-53
2022/09/09 11:54:44;;;;;;;2.20;1.70;;;25.30;1.00;;;;;;4991379;28;20466;-55
2022/09/09 11:57:36;;;;;;;3.03;2.20;;;25.50;1.00;;;;;;4990536;28;20962;-53
2022/09/09 12:00:03;;;;;;;2.90;1.47;;;25.60;1.00;;;;;;4977590;28;20482;-54
2022/09/09 12:02:31;;;;;;;2.60;1.27;;;25.40;1.00;;;;;;4990752;28;20455;-54
2022/09/09 12:05:12;;;;;;;1.73;1.40;;;25.10;1.00;;;;;;4989124;28;20464;-56
2022/09/09 12:07:58;;;;;;;1.80;1.37;;;25.00;1.00;;;;;;4983956;28;20449;-54
2022/09/09 12:10:32;;;;;;;4.03;1.50;;;25.40;1.00;;;;;;4990156;28;20459;-54
2022/09/09 12:13:27;;;;;;;2.40;1.30;;;25.60;1.00;;;;;;4991208;28;20448;-54
2022/09/09 12:15:55;;;;;;;2.70;1.50;;;25.50;1.00;;;;;;4974918;28;20446;-53
2022/09/09 12:18:26;;;;;;;3.83;1.70;;;25.20;1.00;;;;;;4990402;28;20483;-54
2022/09/09 12:21:00;;;;;;;2.50;1.50;;;24.90;1.00;;;;;;4987182;28;20479;-54
2022/09/09 12:23:45;;;;;;;4.23;2.10;;;24.50;1.00;;;;;;4988482;28;20474;-54
2022/09/09 12:26:47;;;;;;;4.50;1.53;;;24.10;1.00;;;;;;4993191;28;20522;-55
2022/09/09 12:29:27;;;;;;;1.97;1.40;;;24.00;1.00;;;;;;4995382;28;20448;-60
2022/09/09 12:32:01;;;;;;;2.97;1.60;;;23.60;1.00;;;;;;4992745;28;20534;-55
2022/09/09 12:34:54;;;;;;;3.27;1.97;;;24.10;1.00;;;;;;4988452;28;20419;-55
2022/09/09 12:37:26;;;;;;;4.20;1.90;;;24.30;1.00;;;;;;5001603;28;20452;-54
2022/09/09 12:39:56;;;;;;;3.87;1.57;;;24.50;1.00;;;;;;4989592;28;20481;-53
2022/09/09 12:42:23;;;;;;;1.80;1.70;;;24.70;1.00;;;;;;4990111;28;20501;-53
2022/09/09 12:44:55;;;;;;;2.53;1.53;;;24.90;1.00;;;;;;4990961;28;20457;-52
2022/09/09 12:47:30;;;;;;;1.90;1.70;;;25.10;1.00;;;;;;4994200;28;20801;-53
2022/09/09 12:49:56;;;;;;;4.00;2.03;;;25.40;1.00;;;;;;4989975;28;20476;-56
2022/09/09 12:52:33;;;;;;;2.60;1.80;;;25.60;1.00;;;;;;4989676;28;20478;-52
2022/09/09 12:55:01;;;;;;;1.63;1.53;;;25.80;1.00;;;;;;4990303;28;20192;-55
2022/09/09 12:57:34;;;;;;;2.10;1.77;;;25.80;1.00;;;;;;4989882;28;21187;-55
2022/09/09 13:00:17;;;;;;;2.27;1.50;;;25.90;1.00;;;;;;4987389;28;20946;-54
2022/09/09 13:03:00;;;;;;;3.73;1.53;;;25.70;1.00;;;;;;4989105;28;20436;-54
2022/09/09 13:05:35;;;;;;;7.27;1.73;;;25.70;1.00;;;;;;4988496;28;20456;-53
2022/09/09 13:08:06;;;;;;;3.93;2.07;;;25.60;1.00;;;;;;4987054;28;20466;-53
2022/09/09 13:11:21;;;;;;;4.03;1.97;;;25.50;1.00;;;;;;4985081;28;20416;-52
2022/09/09 13:13:55;;;;;;;3.90;3.00;;;25.40;1.00;;;;;;4970929;28;20454;-53
2022/09/09 13:16:41;;;;;;;4.23;2.77;;;25.20;1.00;;;;;;4997004;28;20485;-53
2022/09/09 13:19:09;;;;;;;6.00;2.17;;;25.30;1.00;;;;;;4987178;28;20555;-53
2022/09/09 13:21:39;;;;;;;4.47;1.70;;;25.30;1.00;;;;;;4990312;28;20961;-55
2022/09/09 13:24:22;;;;;;;4.13;1.77;;;25.60;1.00;;;;;;4988693;28;20438;-53
2022/09/09 13:26:58;;;;;;;2.37;1.73;;;25.70;1.00;;;;;;4988964;28;20539;-53
2022/09/09 13:29:24;;;;;;;2.27;1.47;;;25.90;1.00;;;;;;4991725;28;20442;-53
2022/09/09 13:31:52;;;;;;;1.73;1.10;;;25.90;1.00;;;;;;4972706;28;20453;-53
2022/09/09 13:34:32;;;;;;;3.20;1.77;;;25.90;1.00;;;;;;4983324;28;20192;-55